sensor_id;sensor_type;location;lat;lon;timestamp;P1;durP1;ratioP1;P2;durP2;ratioP2
77262;SDS011;66373;52.334;4.806;2023-07-31T00:02:02;6.88;;;2.30;;
77262;SDS011;66373;52.334;4.806;2023-07-31T00:04:30;3.90;;;2.28;;
77262;SDS011;66373;52.334;4.806;2023-07-31T00:06:57;3.38;;;2.05;;
77262;SDS011;66373;52.334;4.806;2023-07-31T00:09:24;3.97;;;2.30;;
77262;SDS011;66373;52.334;4.806;2023-07-31T00:11:50;4.68;;;2.75;;
77262;SDS011;66373;52.334;4.806;2023-07-31T00:14:18;7.32;;;3.17;;
77262;SDS011;66373;52.334;4.806;2023-07-31T00:16:46;5.68;;;2.45;;
77262;SDS011;66373;52.334;4.806;2023-07-31T00:19:13;5.90;;;2.55;;
77262;SDS011;66373;52.334;4.806;2023-07-31T00:21:40;5.47;;;2.40;;
77262;SDS011;66373;52.334;4.806;2023-07-31T00:24:07;3.83;;;2.50;;
77262;SDS011;66373;52.334;4.806;2023-07-31T00:26:34;8.38;;;2.88;;
77262;SDS011;66373;52.334;4.806;2023-07-31T00:29:01;9.18;;;2.58;;
77262;SDS011;66373;52.334;4.806;2023-07-31T00:31:28;6.95;;;2.80;;
77262;SDS011;66373;52.334;4.806;2023-07-31T00:33:56;6.30;;;2.90;;
77262;SDS011;66373;52.334;4.806;2023-07-31T00:36:23;5.38;;;2.85;;
77262;SDS011;66373;52.334;4.806;2023-07-31T00:38:50;6.13;;;2.92;;
77262;SDS011;66373;52.334;4.806;2023-07-31T00:41:17;9.00;;;3.15;;
77262;SDS011;66373;52.334;4.806;2023-07-31T00:43:44;6.43;;;3.00;;
77262;SDS011;66373;52.334;4.806;2023-07-31T00:46:11;6.47;;;2.90;;
77262;SDS011;66373;52.334;4.806;2023-07-31T00:48:38;4.85;;;2.55;;
77262;SDS011;66373;52.334;4.806;2023-07-31T00:51:08;4.85;;;2.60;;
77262;SDS011;66373;52.334;4.806;2023-07-31T00:53:35;5.68;;;3.22;;
77262;SDS011;66373;52.334;4.806;2023-07-31T00:56:03;8.25;;;3.30;;
77262;SDS011;66373;52.334;4.806;2023-07-31T00:58:30;6.63;;;3.03;;
77262;SDS011;66373;52.334;4.806;2023-07-31T01:00:57;7.65;;;2.90;;
77262;SDS011;66373;52.334;4.806;2023-07-31T01:03:24;8.32;;;3.35;;
77262;SDS011;66373;52.334;4.806;2023-07-31T01:05:56;6.30;;;2.80;;
77262;SDS011;66373;52.334;4.806;2023-07-31T01:08:35;9.77;;;3.58;;
77262;SDS011;66373;52.334;4.806;2023-07-31T01:11:07;7.90;;;2.92;;
77262;SDS011;66373;52.334;4.806;2023-07-31T01:13:40;7.78;;;3.30;;
77262;SDS011;66373;52.334;4.806;2023-07-31T01:16:08;8.35;;;2.83;;
77262;SDS011;66373;52.334;4.806;2023-07-31T01:18:35;6.13;;;3.30;;
77262;SDS011;66373;52.334;4.806;2023-07-31T01:21:06;7.78;;;3.45;;
77262;SDS011;66373;52.334;4.806;2023-07-31T01:23:55;11.93;;;4.10;;
77262;SDS011;66373;52.334;4.806;2023-07-31T01:26:37;11.15;;;3.58;;
77262;SDS011;66373;52.334;4.806;2023-07-31T01:29:07;5.97;;;3.25;;
77262;SDS011;66373;52.334;4.806;2023-07-31T01:31:41;6.90;;;3.10;;
77262;SDS011;66373;52.334;4.806;2023-07-31T01:34:14;6.47;;;3.13;;
77262;SDS011;66373;52.334;4.806;2023-07-31T01:36:44;7.10;;;3.65;;
77262;SDS011;66373;52.334;4.806;2023-07-31T01:39:11;8.18;;;3.55;;
77262;SDS011;66373;52.334;4.806;2023-07-31T01:41:40;7.47;;;3.40;;
77262;SDS011;66373;52.334;4.806;2023-07-31T01:44:07;7.93;;;3.60;;
77262;SDS011;66373;52.334;4.806;2023-07-31T01:46:34;8.48;;;3.78;;
77262;SDS011;66373;52.334;4.806;2023-07-31T01:49:01;16.75;;;4.70;;
77262;SDS011;66373;52.334;4.806;2023-07-31T01:51:30;9.98;;;3.83;;
77262;SDS011;66373;52.334;4.806;2023-07-31T01:53:59;9.57;;;3.90;;
77262;SDS011;66373;52.334;4.806;2023-07-31T01:56:26;9.75;;;4.15;;
77262;SDS011;66373;52.334;4.806;2023-07-31T01:58:54;10.05;;;4.05;;
77262;SDS011;66373;52.334;4.806;2023-07-31T02:01:21;11.35;;;5.15;;
77262;SDS011;66373;52.334;4.806;2023-07-31T02:03:48;9.98;;;4.00;;
77262;SDS011;66373;52.334;4.806;2023-07-31T02:06:15;6.47;;;3.83;;
77262;SDS011;66373;52.334;4.806;2023-07-31T02:08:43;14.50;;;4.88;;
77262;SDS011;66373;52.334;4.806;2023-07-31T02:11:12;9.50;;;4.40;;
77262;SDS011;66373;52.334;4.806;2023-07-31T02:13:39;13.43;;;4.35;;
77262;SDS011;66373;52.334;4.806;2023-07-31T02:16:07;6.97;;;4.00;;
77262;SDS011;66373;52.334;4.806;2023-07-31T02:18:34;11.40;;;4.28;;
77262;SDS011;66373;52.334;4.806;2023-07-31T02:21:01;10.60;;;4.20;;
77262;SDS011;66373;52.334;4.806;2023-07-31T02:23:28;11.85;;;4.72;;
77262;SDS011;66373;52.334;4.806;2023-07-31T02:25:55;11.48;;;4.22;;
77262;SDS011;66373;52.334;4.806;2023-07-31T02:28:23;10.77;;;4.65;;
77262;SDS011;66373;52.334;4.806;2023-07-31T02:30:50;12.15;;;4.95;;
77262;SDS011;66373;52.334;4.806;2023-07-31T02:33:19;8.93;;;4.40;;
77262;SDS011;66373;52.334;4.806;2023-07-31T02:35:46;12.07;;;4.20;;
77262;SDS011;66373;52.334;4.806;2023-07-31T02:38:13;11.80;;;4.82;;
77262;SDS011;66373;52.334;4.806;2023-07-31T02:40:40;10.90;;;4.95;;
77262;SDS011;66373;52.334;4.806;2023-07-31T02:43:07;11.00;;;5.00;;
77262;SDS011;66373;52.334;4.806;2023-07-31T02:45:35;12.48;;;4.80;;
77262;SDS011;66373;52.334;4.806;2023-07-31T02:48:03;12.70;;;5.30;;
77262;SDS011;66373;52.334;4.806;2023-07-31T02:50:32;12.88;;;5.40;;
77262;SDS011;66373;52.334;4.806;2023-07-31T02:52:59;9.57;;;4.18;;
77262;SDS011;66373;52.334;4.806;2023-07-31T02:55:26;12.32;;;4.82;;
77262;SDS011;66373;52.334;4.806;2023-07-31T02:57:53;11.05;;;4.60;;
77262;SDS011;66373;52.334;4.806;2023-07-31T03:00:20;12.45;;;5.00;;
77262;SDS011;66373;52.334;4.806;2023-07-31T03:02:47;11.93;;;4.38;;
77262;SDS011;66373;52.334;4.806;2023-07-31T03:05:14;11.75;;;5.55;;
77262;SDS011;66373;52.334;4.806;2023-07-31T03:07:42;11.77;;;4.85;;
77262;SDS011;66373;52.334;4.806;2023-07-31T03:10:09;12.73;;;5.82;;
77262;SDS011;66373;52.334;4.806;2023-07-31T03:12:36;11.07;;;4.90;;
77262;SDS011;66373;52.334;4.806;2023-07-31T03:15:04;11.68;;;4.35;;
77262;SDS011;66373;52.334;4.806;2023-07-31T03:17:31;17.55;;;5.18;;
77262;SDS011;66373;52.334;4.806;2023-07-31T03:19:58;10.75;;;4.78;;
77262;SDS011;66373;52.334;4.806;2023-07-31T03:22:25;11.65;;;5.00;;
77262;SDS011;66373;52.334;4.806;2023-07-31T03:24:54;13.75;;;5.00;;
77262;SDS011;66373;52.334;4.806;2023-07-31T03:27:20;15.35;;;5.38;;
77262;SDS011;66373;52.334;4.806;2023-07-31T03:29:48;12.38;;;4.80;;
77262;SDS011;66373;52.334;4.806;2023-07-31T03:32:16;12.13;;;5.18;;
77262;SDS011;66373;52.334;4.806;2023-07-31T03:34:43;9.15;;;4.32;;
77262;SDS011;66373;52.334;4.806;2023-07-31T03:37:10;10.88;;;5.32;;
77262;SDS011;66373;52.334;4.806;2023-07-31T03:39:37;11.63;;;4.82;;
77262;SDS011;66373;52.334;4.806;2023-07-31T03:42:06;9.00;;;4.65;;
77262;SDS011;66373;52.334;4.806;2023-07-31T03:44:34;15.43;;;5.75;;
77262;SDS011;66373;52.334;4.806;2023-07-31T03:47:01;13.73;;;4.70;;
77262;SDS011;66373;52.334;4.806;2023-07-31T03:49:28;13.57;;;4.95;;
77262;SDS011;66373;52.334;4.806;2023-07-31T03:51:55;11.40;;;5.88;;
77262;SDS011;66373;52.334;4.806;2023-07-31T03:54:22;13.73;;;5.28;;
77262;SDS011;66373;52.334;4.806;2023-07-31T03:56:49;14.07;;;5.10;;
77262;SDS011;66373;52.334;4.806;2023-07-31T03:59:17;10.02;;;4.85;;
77262;SDS011;66373;52.334;4.806;2023-07-31T04:01:44;12.25;;;5.22;;
77262;SDS011;66373;52.334;4.806;2023-07-31T04:04:11;13.00;;;5.38;;
77262;SDS011;66373;52.334;4.806;2023-07-31T04:06:38;14.75;;;5.95;;
77262;SDS011;66373;52.334;4.806;2023-07-31T04:09:05;16.38;;;5.63;;
77262;SDS011;66373;52.334;4.806;2023-07-31T04:11:32;11.77;;;5.10;;
77262;SDS011;66373;52.334;4.806;2023-07-31T04:13:59;16.17;;;5.95;;
77262;SDS011;66373;52.334;4.806;2023-07-31T04:16:27;13.93;;;5.65;;
77262;SDS011;66373;52.334;4.806;2023-07-31T04:18:54;16.15;;;5.32;;
77262;SDS011;66373;52.334;4.806;2023-07-31T04:21:21;14.90;;;5.45;;
77262;SDS011;66373;52.334;4.806;2023-07-31T04:23:48;12.35;;;5.38;;
77262;SDS011;66373;52.334;4.806;2023-07-31T04:26:15;14.85;;;5.57;;
77262;SDS011;66373;52.334;4.806;2023-07-31T04:28:42;14.23;;;5.47;;
77262;SDS011;66373;52.334;4.806;2023-07-31T04:31:09;12.30;;;5.53;;
77262;SDS011;66373;52.334;4.806;2023-07-31T04:33:38;12.73;;;5.47;;
77262;SDS011;66373;52.334;4.806;2023-07-31T04:36:05;12.40;;;4.72;;
77262;SDS011;66373;52.334;4.806;2023-07-31T04:38:32;11.40;;;5.22;;
77262;SDS011;66373;52.334;4.806;2023-07-31T04:40:59;14.85;;;5.28;;
77262;SDS011;66373;52.334;4.806;2023-07-31T04:43:26;15.35;;;5.13;;
77262;SDS011;66373;52.334;4.806;2023-07-31T04:45:52;14.90;;;5.28;;
77262;SDS011;66373;52.334;4.806;2023-07-31T04:48:19;8.48;;;4.70;;
77262;SDS011;66373;52.334;4.806;2023-07-31T04:50:48;12.85;;;4.65;;
77262;SDS011;66373;52.334;4.806;2023-07-31T04:53:15;13.70;;;5.25;;
77262;SDS011;66373;52.334;4.806;2023-07-31T04:55:42;11.30;;;5.15;;
77262;SDS011;66373;52.334;4.806;2023-07-31T04:58:09;12.48;;;4.63;;
77262;SDS011;66373;52.334;4.806;2023-07-31T05:00:35;13.60;;;5.05;;
77262;SDS011;66373;52.334;4.806;2023-07-31T05:03:02;11.57;;;4.80;;
77262;SDS011;66373;52.334;4.806;2023-07-31T05:05:30;8.60;;;4.32;;
77262;SDS011;66373;52.334;4.806;2023-07-31T05:07:58;8.88;;;3.83;;
77262;SDS011;66373;52.334;4.806;2023-07-31T05:10:25;12.35;;;4.75;;
77262;SDS011;66373;52.334;4.806;2023-07-31T05:12:52;10.40;;;4.22;;
77262;SDS011;66373;52.334;4.806;2023-07-31T05:15:19;7.70;;;3.78;;
77262;SDS011;66373;52.334;4.806;2023-07-31T05:17:46;9.75;;;3.60;;
77262;SDS011;66373;52.334;4.806;2023-07-31T05:20:13;12.00;;;3.58;;
77262;SDS011;66373;52.334;4.806;2023-07-31T05:22:41;9.18;;;3.45;;
77262;SDS011;66373;52.334;4.806;2023-07-31T05:25:09;9.68;;;4.05;;
77262;SDS011;66373;52.334;4.806;2023-07-31T05:27:36;7.75;;;4.00;;
77262;SDS011;66373;52.334;4.806;2023-07-31T05:30:04;14.63;;;4.20;;
77262;SDS011;66373;52.334;4.806;2023-07-31T05:32:32;12.15;;;3.67;;
77262;SDS011;66373;52.334;4.806;2023-07-31T05:34:59;8.20;;;3.75;;
77262;SDS011;66373;52.334;4.806;2023-07-31T05:37:26;11.00;;;3.78;;
77262;SDS011;66373;52.334;4.806;2023-07-31T05:39:53;11.93;;;3.78;;
77262;SDS011;66373;52.334;4.806;2023-07-31T05:42:21;9.82;;;3.50;;
77262;SDS011;66373;52.334;4.806;2023-07-31T05:44:48;7.95;;;3.67;;
77262;SDS011;66373;52.334;4.806;2023-07-31T05:47:15;6.18;;;3.00;;
77262;SDS011;66373;52.334;4.806;2023-07-31T05:49:42;7.47;;;3.45;;
77262;SDS011;66373;52.334;4.806;2023-07-31T05:52:09;8.63;;;2.78;;
77262;SDS011;66373;52.334;4.806;2023-07-31T05:54:36;4.82;;;2.63;;
77262;SDS011;66373;52.334;4.806;2023-07-31T05:57:03;6.72;;;3.08;;
77262;SDS011;66373;52.334;4.806;2023-07-31T05:59:32;4.78;;;2.50;;
77262;SDS011;66373;52.334;4.806;2023-07-31T06:01:59;6.05;;;2.35;;
77262;SDS011;66373;52.334;4.806;2023-07-31T06:04:26;3.88;;;2.42;;
77262;SDS011;66373;52.334;4.806;2023-07-31T06:06:53;4.38;;;2.35;;
77262;SDS011;66373;52.334;4.806;2023-07-31T06:09:20;4.75;;;2.25;;
77262;SDS011;66373;52.334;4.806;2023-07-31T06:11:47;4.78;;;1.95;;
77262;SDS011;66373;52.334;4.806;2023-07-31T06:14:15;4.00;;;2.10;;
77262;SDS011;66373;52.334;4.806;2023-07-31T06:16:43;4.88;;;1.95;;
77262;SDS011;66373;52.334;4.806;2023-07-31T06:19:10;5.90;;;2.28;;
77262;SDS011;66373;52.334;4.806;2023-07-31T06:21:38;6.10;;;2.08;;
77262;SDS011;66373;52.334;4.806;2023-07-31T06:24:07;2.20;;;2.00;;
77262;SDS011;66373;52.334;4.806;2023-07-31T06:26:34;2.42;;;1.90;;
77262;SDS011;66373;52.334;4.806;2023-07-31T06:29:01;2.72;;;1.80;;
77262;SDS011;66373;52.334;4.806;2023-07-31T06:31:28;2.63;;;1.77;;
77262;SDS011;66373;52.334;4.806;2023-07-31T06:33:57;3.00;;;2.20;;
77262;SDS011;66373;52.334;4.806;2023-07-31T06:36:24;3.45;;;2.25;;
77262;SDS011;66373;52.334;4.806;2023-07-31T06:38:51;2.47;;;1.73;;
77262;SDS011;66373;52.334;4.806;2023-07-31T06:41:19;2.05;;;1.65;;
77262;SDS011;66373;52.334;4.806;2023-07-31T06:43:46;2.75;;;1.70;;
77262;SDS011;66373;52.334;4.806;2023-07-31T06:46:13;2.05;;;1.55;;
77262;SDS011;66373;52.334;4.806;2023-07-31T06:48:40;3.47;;;1.70;;
77262;SDS011;66373;52.334;4.806;2023-07-31T06:51:08;2.80;;;1.83;;
77262;SDS011;66373;52.334;4.806;2023-07-31T06:53:35;1.40;;;1.30;;
77262;SDS011;66373;52.334;4.806;2023-07-31T06:56:02;3.22;;;1.65;;
77262;SDS011;66373;52.334;4.806;2023-07-31T06:58:29;2.22;;;1.60;;
77262;SDS011;66373;52.334;4.806;2023-07-31T07:00:56;1.67;;;1.58;;
77262;SDS011;66373;52.334;4.806;2023-07-31T07:03:23;1.52;;;1.40;;
77262;SDS011;66373;52.334;4.806;2023-07-31T07:05:50;2.58;;;1.58;;
77262;SDS011;66373;52.334;4.806;2023-07-31T07:08:19;2.65;;;1.60;;
77262;SDS011;66373;52.334;4.806;2023-07-31T07:10:46;1.60;;;1.50;;
77262;SDS011;66373;52.334;4.806;2023-07-31T07:13:13;2.33;;;1.65;;
77262;SDS011;66373;52.334;4.806;2023-07-31T07:15:40;2.17;;;1.63;;
77262;SDS011;66373;52.334;4.806;2023-07-31T07:18:07;1.85;;;1.50;;
77262;SDS011;66373;52.334;4.806;2023-07-31T07:20:36;2.40;;;1.60;;
77262;SDS011;66373;52.334;4.806;2023-07-31T07:23:02;1.85;;;1.50;;
77262;SDS011;66373;52.334;4.806;2023-07-31T07:25:31;1.70;;;1.60;;
77262;SDS011;66373;52.334;4.806;2023-07-31T07:27:58;2.55;;;1.50;;
77262;SDS011;66373;52.334;4.806;2023-07-31T07:30:25;3.35;;;1.55;;
77262;SDS011;66373;52.334;4.806;2023-07-31T07:32:52;2.03;;;1.60;;
77262;SDS011;66373;52.334;4.806;2023-07-31T07:35:19;1.77;;;1.67;;
77262;SDS011;66373;52.334;4.806;2023-07-31T07:37:50;1.75;;;1.60;;
77262;SDS011;66373;52.334;4.806;2023-07-31T07:40:17;3.13;;;1.73;;
77262;SDS011;66373;52.334;4.806;2023-07-31T07:42:45;2.05;;;1.63;;
77262;SDS011;66373;52.334;4.806;2023-07-31T07:45:13;3.20;;;1.80;;
77262;SDS011;66373;52.334;4.806;2023-07-31T07:47:40;3.90;;;1.80;;
77262;SDS011;66373;52.334;4.806;2023-07-31T07:50:07;3.35;;;1.70;;
77262;SDS011;66373;52.334;4.806;2023-07-31T07:52:35;4.13;;;1.88;;
77262;SDS011;66373;52.334;4.806;2023-07-31T07:55:02;3.47;;;1.98;;
77262;SDS011;66373;52.334;4.806;2023-07-31T07:57:29;3.03;;;1.92;;
77262;SDS011;66373;52.334;4.806;2023-07-31T07:59:57;3.22;;;2.17;;
77262;SDS011;66373;52.334;4.806;2023-07-31T08:02:25;6.47;;;1.77;;
77262;SDS011;66373;52.334;4.806;2023-07-31T08:04:51;5.72;;;2.17;;
77262;SDS011;66373;52.334;4.806;2023-07-31T08:07:19;4.32;;;2.13;;
77262;SDS011;66373;52.334;4.806;2023-07-31T08:09:46;3.40;;;2.00;;
77262;SDS011;66373;52.334;4.806;2023-07-31T08:12:13;8.00;;;2.20;;
77262;SDS011;66373;52.334;4.806;2023-07-31T08:14:40;3.15;;;2.00;;
77262;SDS011;66373;52.334;4.806;2023-07-31T08:17:08;3.58;;;2.05;;
77262;SDS011;66373;52.334;4.806;2023-07-31T08:19:35;3.20;;;2.22;;
77262;SDS011;66373;52.334;4.806;2023-07-31T08:22:02;4.18;;;1.92;;
77262;SDS011;66373;52.334;4.806;2023-07-31T08:24:29;3.47;;;1.90;;
77262;SDS011;66373;52.334;4.806;2023-07-31T08:26:56;3.97;;;2.33;;
77262;SDS011;66373;52.334;4.806;2023-07-31T08:29:24;2.95;;;1.83;;
77262;SDS011;66373;52.334;4.806;2023-07-31T08:31:52;2.00;;;1.70;;
77262;SDS011;66373;52.334;4.806;2023-07-31T08:34:20;3.60;;;2.00;;
77262;SDS011;66373;52.334;4.806;2023-07-31T08:36:47;2.53;;;1.80;;
77262;SDS011;66373;52.334;4.806;2023-07-31T08:39:14;4.75;;;2.03;;
77262;SDS011;66373;52.334;4.806;2023-07-31T08:41:41;2.63;;;2.15;;
77262;SDS011;66373;52.334;4.806;2023-07-31T08:44:08;4.82;;;2.40;;
77262;SDS011;66373;52.334;4.806;2023-07-31T08:46:36;3.58;;;2.03;;
77262;SDS011;66373;52.334;4.806;2023-07-31T08:49:05;3.58;;;2.08;;
77262;SDS011;66373;52.334;4.806;2023-07-31T08:51:35;5.30;;;2.28;;
77262;SDS011;66373;52.334;4.806;2023-07-31T08:54:03;6.35;;;1.90;;
77262;SDS011;66373;52.334;4.806;2023-07-31T08:56:31;2.75;;;1.70;;
77262;SDS011;66373;52.334;4.806;2023-07-31T08:58:58;5.30;;;2.20;;
77262;SDS011;66373;52.334;4.806;2023-07-31T09:01:29;3.72;;;1.85;;
77262;SDS011;66373;52.334;4.806;2023-07-31T09:03:58;4.55;;;2.13;;
77262;SDS011;66373;52.334;4.806;2023-07-31T09:06:27;3.75;;;1.88;;
77262;SDS011;66373;52.334;4.806;2023-07-31T09:08:57;2.88;;;1.75;;
77262;SDS011;66373;52.334;4.806;2023-07-31T09:11:25;7.68;;;2.30;;
77262;SDS011;66373;52.334;4.806;2023-07-31T09:13:54;3.67;;;2.03;;
77262;SDS011;66373;52.334;4.806;2023-07-31T09:16:27;3.70;;;1.83;;
77262;SDS011;66373;52.334;4.806;2023-07-31T09:18:57;3.03;;;1.92;;
77262;SDS011;66373;52.334;4.806;2023-07-31T09:21:27;7.80;;;2.35;;
77262;SDS011;66373;52.334;4.806;2023-07-31T09:23:54;4.13;;;2.25;;
77262;SDS011;66373;52.334;4.806;2023-07-31T09:26:33;5.43;;;2.47;;
77262;SDS011;66373;52.334;4.806;2023-07-31T09:29:01;5.65;;;2.20;;
77262;SDS011;66373;52.334;4.806;2023-07-31T09:31:33;3.83;;;2.00;;
77262;SDS011;66373;52.334;4.806;2023-07-31T09:34:05;4.00;;;2.08;;
77262;SDS011;66373;52.334;4.806;2023-07-31T09:36:39;6.88;;;2.28;;
77262;SDS011;66373;52.334;4.806;2023-07-31T09:39:08;4.90;;;2.38;;
77262;SDS011;66373;52.334;4.806;2023-07-31T09:41:38;5.72;;;2.42;;
77262;SDS011;66373;52.334;4.806;2023-07-31T09:44:06;7.50;;;2.35;;
77262;SDS011;66373;52.334;4.806;2023-07-31T09:46:34;6.10;;;2.40;;
77262;SDS011;66373;52.334;4.806;2023-07-31T09:49:08;4.38;;;2.33;;
77262;SDS011;66373;52.334;4.806;2023-07-31T09:51:36;6.75;;;2.88;;
77262;SDS011;66373;52.334;4.806;2023-07-31T09:54:09;7.53;;;2.22;;
77262;SDS011;66373;52.334;4.806;2023-07-31T09:56:41;7.80;;;2.58;;
77262;SDS011;66373;52.334;4.806;2023-07-31T09:59:14;8.25;;;2.72;;
77262;SDS011;66373;52.334;4.806;2023-07-31T10:01:43;5.30;;;2.47;;
77262;SDS011;66373;52.334;4.806;2023-07-31T10:04:12;6.20;;;2.70;;
77262;SDS011;66373;52.334;4.806;2023-07-31T10:06:40;4.60;;;2.50;;
77262;SDS011;66373;52.334;4.806;2023-07-31T10:09:10;3.60;;;2.25;;
77262;SDS011;66373;52.334;4.806;2023-07-31T10:11:45;5.97;;;2.22;;
77262;SDS011;66373;52.334;4.806;2023-07-31T10:14:16;5.55;;;2.78;;
77262;SDS011;66373;52.334;4.806;2023-07-31T10:16:45;6.35;;;2.50;;
77262;SDS011;66373;52.334;4.806;2023-07-31T10:19:12;6.00;;;2.50;;
77262;SDS011;66373;52.334;4.806;2023-07-31T10:21:39;7.38;;;2.40;;
77262;SDS011;66373;52.334;4.806;2023-07-31T10:24:07;6.13;;;2.55;;
77262;SDS011;66373;52.334;4.806;2023-07-31T10:26:50;4.93;;;2.60;;
77262;SDS011;66373;52.334;4.806;2023-07-31T10:29:19;3.25;;;2.20;;
77262;SDS011;66373;52.334;4.806;2023-07-31T10:31:52;5.75;;;2.15;;
77262;SDS011;66373;52.334;4.806;2023-07-31T10:34:20;5.28;;;2.28;;
77262;SDS011;66373;52.334;4.806;2023-07-31T10:36:47;9.70;;;2.33;;
77262;SDS011;66373;52.334;4.806;2023-07-31T10:39:33;5.53;;;2.63;;
77262;SDS011;66373;52.334;4.806;2023-07-31T10:42:10;6.45;;;2.25;;
77262;SDS011;66373;52.334;4.806;2023-07-31T10:44:38;5.75;;;2.28;;
77262;SDS011;66373;52.334;4.806;2023-07-31T10:47:10;4.30;;;2.40;;
77262;SDS011;66373;52.334;4.806;2023-07-31T10:49:44;7.05;;;2.92;;
77262;SDS011;66373;52.334;4.806;2023-07-31T10:52:12;5.85;;;2.20;;
77262;SDS011;66373;52.334;4.806;2023-07-31T10:54:40;5.97;;;2.30;;
77262;SDS011;66373;52.334;4.806;2023-07-31T10:57:19;6.90;;;2.47;;
77262;SDS011;66373;52.334;4.806;2023-07-31T10:59:47;5.93;;;2.53;;
77262;SDS011;66373;52.334;4.806;2023-07-31T11:02:24;6.18;;;2.30;;
77262;SDS011;66373;52.334;4.806;2023-07-31T11:05:07;7.07;;;2.55;;
77262;SDS011;66373;52.334;4.806;2023-07-31T11:07:48;6.70;;;2.50;;
77262;SDS011;66373;52.334;4.806;2023-07-31T11:10:16;5.20;;;2.13;;
77262;SDS011;66373;52.334;4.806;2023-07-31T11:12:46;5.43;;;2.60;;
77262;SDS011;66373;52.334;4.806;2023-07-31T11:15:15;5.80;;;2.58;;
77262;SDS011;66373;52.334;4.806;2023-07-31T11:17:43;6.15;;;2.72;;
77262;SDS011;66373;52.334;4.806;2023-07-31T11:20:10;7.18;;;2.30;;
77262;SDS011;66373;52.334;4.806;2023-07-31T11:22:38;6.05;;;2.25;;
77262;SDS011;66373;52.334;4.806;2023-07-31T11:25:07;6.57;;;2.88;;
77262;SDS011;66373;52.334;4.806;2023-07-31T11:27:38;5.55;;;2.40;;
77262;SDS011;66373;52.334;4.806;2023-07-31T11:30:12;5.57;;;2.47;;
77262;SDS011;66373;52.334;4.806;2023-07-31T11:32:39;5.75;;;2.42;;
77262;SDS011;66373;52.334;4.806;2023-07-31T11:35:06;10.82;;;2.65;;
77262;SDS011;66373;52.334;4.806;2023-07-31T11:37:40;7.35;;;2.75;;
77262;SDS011;66373;52.334;4.806;2023-07-31T11:40:11;6.85;;;2.83;;
77262;SDS011;66373;52.334;4.806;2023-07-31T11:42:38;4.00;;;2.40;;
77262;SDS011;66373;52.334;4.806;2023-07-31T11:45:05;4.15;;;2.42;;
77262;SDS011;66373;52.334;4.806;2023-07-31T11:47:35;6.82;;;2.40;;
77262;SDS011;66373;52.334;4.806;2023-07-31T11:50:04;4.55;;;2.40;;
77262;SDS011;66373;52.334;4.806;2023-07-31T11:52:34;8.60;;;2.72;;
77262;SDS011;66373;52.334;4.806;2023-07-31T11:55:07;7.43;;;3.13;;
77262;SDS011;66373;52.334;4.806;2023-07-31T11:57:37;7.60;;;2.45;;
77262;SDS011;66373;52.334;4.806;2023-07-31T12:00:06;3.75;;;2.25;;
77262;SDS011;66373;52.334;4.806;2023-07-31T12:02:40;3.70;;;2.30;;
77262;SDS011;66373;52.334;4.806;2023-07-31T12:05:10;5.63;;;2.53;;
77262;SDS011;66373;52.334;4.806;2023-07-31T12:07:47;6.47;;;2.72;;
77262;SDS011;66373;52.334;4.806;2023-07-31T12:13:02;5.28;;;2.30;;
77262;SDS011;66373;52.334;4.806;2023-07-31T12:15:35;7.88;;;2.50;;
77262;SDS011;66373;52.334;4.806;2023-07-31T12:18:06;6.90;;;2.38;;
77262;SDS011;66373;52.334;4.806;2023-07-31T12:20:40;6.25;;;2.42;;
77262;SDS011;66373;52.334;4.806;2023-07-31T12:23:12;6.97;;;2.40;;
77262;SDS011;66373;52.334;4.806;2023-07-31T12:25:41;5.28;;;2.50;;
77262;SDS011;66373;52.334;4.806;2023-07-31T12:28:09;5.95;;;2.70;;
77262;SDS011;66373;52.334;4.806;2023-07-31T12:30:38;5.38;;;2.05;;
77262;SDS011;66373;52.334;4.806;2023-07-31T12:33:12;4.43;;;2.33;;
77262;SDS011;66373;52.334;4.806;2023-07-31T12:35:41;4.68;;;2.30;;
77262;SDS011;66373;52.334;4.806;2023-07-31T12:38:12;4.18;;;2.17;;
77262;SDS011;66373;52.334;4.806;2023-07-31T12:40:40;3.10;;;1.85;;
77262;SDS011;66373;52.334;4.806;2023-07-31T12:43:08;3.50;;;2.20;;
77262;SDS011;66373;52.334;4.806;2023-07-31T12:45:35;4.85;;;2.47;;
77262;SDS011;66373;52.334;4.806;2023-07-31T12:48:02;3.35;;;2.10;;
77262;SDS011;66373;52.334;4.806;2023-07-31T12:50:33;6.10;;;2.72;;
77262;SDS011;66373;52.334;4.806;2023-07-31T12:53:02;7.80;;;2.60;;
77262;SDS011;66373;52.334;4.806;2023-07-31T12:55:30;3.08;;;2.10;;
77262;SDS011;66373;52.334;4.806;2023-07-31T12:57:59;4.07;;;2.00;;
77262;SDS011;66373;52.334;4.806;2023-07-31T13:00:26;4.72;;;2.13;;
77262;SDS011;66373;52.334;4.806;2023-07-31T13:02:55;3.50;;;2.17;;
77262;SDS011;66373;52.334;4.806;2023-07-31T13:05:22;3.58;;;2.03;;
77262;SDS011;66373;52.334;4.806;2023-07-31T13:07:51;4.75;;;2.03;;
77262;SDS011;66373;52.334;4.806;2023-07-31T13:10:18;6.82;;;2.17;;
77262;SDS011;66373;52.334;4.806;2023-07-31T13:12:46;5.22;;;2.28;;
77262;SDS011;66373;52.334;4.806;2023-07-31T13:15:13;7.00;;;2.50;;
77262;SDS011;66373;52.334;4.806;2023-07-31T13:17:41;4.63;;;1.80;;
77262;SDS011;66373;52.334;4.806;2023-07-31T13:20:08;3.05;;;2.08;;
77262;SDS011;66373;52.334;4.806;2023-07-31T13:22:35;4.38;;;2.15;;
77262;SDS011;66373;52.334;4.806;2023-07-31T13:25:04;2.80;;;2.00;;
77262;SDS011;66373;52.334;4.806;2023-07-31T13:27:32;9.48;;;2.42;;
77262;SDS011;66373;52.334;4.806;2023-07-31T13:29:59;4.30;;;2.00;;
77262;SDS011;66373;52.334;4.806;2023-07-31T13:32:26;2.60;;;2.00;;
77262;SDS011;66373;52.334;4.806;2023-07-31T13:34:57;6.20;;;2.35;;
77262;SDS011;66373;52.334;4.806;2023-07-31T13:37:25;3.65;;;1.80;;
77262;SDS011;66373;52.334;4.806;2023-07-31T13:39:52;3.65;;;1.95;;
77262;SDS011;66373;52.334;4.806;2023-07-31T13:42:21;4.82;;;2.05;;
77262;SDS011;66373;52.334;4.806;2023-07-31T13:44:48;5.50;;;2.08;;
77262;SDS011;66373;52.334;4.806;2023-07-31T13:47:15;2.13;;;1.70;;
77262;SDS011;66373;52.334;4.806;2023-07-31T13:49:42;4.30;;;2.05;;
77262;SDS011;66373;52.334;4.806;2023-07-31T13:52:09;5.32;;;2.17;;
77262;SDS011;66373;52.334;4.806;2023-07-31T13:54:37;3.00;;;1.83;;
77262;SDS011;66373;52.334;4.806;2023-07-31T13:57:04;4.35;;;1.92;;
77262;SDS011;66373;52.334;4.806;2023-07-31T13:59:36;3.67;;;1.90;;
77262;SDS011;66373;52.334;4.806;2023-07-31T14:02:03;4.28;;;1.95;;
77262;SDS011;66373;52.334;4.806;2023-07-31T14:04:30;4.90;;;1.90;;
77262;SDS011;66373;52.334;4.806;2023-07-31T14:06:57;4.68;;;1.98;;
77262;SDS011;66373;52.334;4.806;2023-07-31T14:09:25;3.35;;;1.80;;
77262;SDS011;66373;52.334;4.806;2023-07-31T14:11:53;4.28;;;2.22;;
77262;SDS011;66373;52.334;4.806;2023-07-31T14:14:20;2.58;;;1.80;;
77262;SDS011;66373;52.334;4.806;2023-07-31T14:16:48;3.25;;;2.10;;
77262;SDS011;66373;52.334;4.806;2023-07-31T14:19:15;5.15;;;2.05;;
77262;SDS011;66373;52.334;4.806;2023-07-31T14:21:42;3.58;;;2.00;;
77262;SDS011;66373;52.334;4.806;2023-07-31T14:24:09;5.40;;;2.22;;
77262;SDS011;66373;52.334;4.806;2023-07-31T14:26:37;2.80;;;1.92;;
77262;SDS011;66373;52.334;4.806;2023-07-31T14:29:04;3.20;;;1.90;;
77262;SDS011;66373;52.334;4.806;2023-07-31T14:31:31;1.98;;;1.75;;
77262;SDS011;66373;52.334;4.806;2023-07-31T14:33:59;3.85;;;2.00;;
77262;SDS011;66373;52.334;4.806;2023-07-31T14:36:26;3.17;;;1.80;;
77262;SDS011;66373;52.334;4.806;2023-07-31T14:38:53;3.00;;;2.00;;
77262;SDS011;66373;52.334;4.806;2023-07-31T14:41:20;4.22;;;1.63;;
77262;SDS011;66373;52.334;4.806;2023-07-31T14:43:47;4.43;;;2.00;;
77262;SDS011;66373;52.334;4.806;2023-07-31T14:46:14;3.22;;;1.88;;
77262;SDS011;66373;52.334;4.806;2023-07-31T14:48:43;4.82;;;2.20;;
77262;SDS011;66373;52.334;4.806;2023-07-31T14:51:12;3.47;;;1.83;;
77262;SDS011;66373;52.334;4.806;2023-07-31T14:53:40;4.35;;;1.70;;
77262;SDS011;66373;52.334;4.806;2023-07-31T14:56:07;2.95;;;1.88;;